Duncans Mills, CA (95430)

5:41 PM PDT on September 17, 2014 (GMT -0700)
Huckleberry Heights, Lower Austin Creek | Change Station
CLOSE
Current Station
Personal Weather Station
Location: Cazadero, CA
Elevation: 299 ft
Nearby Weather Stations
Active Advisory: Beach Hazard Statement

Elev 299 ft 38.49 °N, 123.06 °W | Updated 11 minutes ago

Mostly Cloudy
Mostly Cloudy
68.1 °F
Feels Like 68.1 °F
N
0.0
Wind Variable Wind from NNE
Gusts 0.0 mph

Today
High -- | Low -- °F
--% Chance of Precip.
Yesterday
High -- | Low -- °F
Precip. -- in
6:56 AM 7:17 PM
Waning Crescent, 32% visible
Pressure 29.72 in
Visibility 10.0 miles
Clouds Scattered Clouds 4600 ft
Mostly Cloudy 5500 ft
Mostly Cloudy 7000 ft
Dew Point 60 °F
Humidity 76%
Rainfall 0.00 in
Snow Depth 0 in , 0 in , 0 in
UV 1 out of 12
Pollen 5.10 out of 12
Air Quality Not available.
Flu Activity Not available.
METAR KSTS 172353Z 22011KT 10SM SCT046 BKN055 BKN070 23/13 A2973 RMK AO2 SLP062 T02280128 10272 20194 56009

More Conditions Fewer Conditions

Pressure 29.72 in
Visibility 10.0 miles
Clouds Scattered Clouds 4600 ft
Mostly Cloudy 5500 ft
Mostly Cloudy 7000 ft
Dew Point 60 °F
Humidity 76%
Rainfall 0.00 in
Snow Depth 0 in , 0 in , 0 in
UV 1 out of 12
Pollen 5.10 out of 12
Air Quality Not available.
Flu Activity Not available.
METAR KSTS 172353Z 22011KT 10SM SCT046 BKN055 BKN070 23/13 A2973 RMK AO2 SLP062 T02280128 10272 20194 56009

More Conditions Fewer Conditions

10-Day Weather Forecast

Almanac

Astronomy

Sep. 17, 2014 Rise Set
Actual Time 6:56 AM PDT 7:17 PM PDT
Civil Twilight 6:29 AM PDT 7:43 PM PDT
Nautical Twilight 5:58 AM PDT 8:14 PM PDT
Astronomical Twilight 5:26 AM PDT 8:46 PM PDT
Moon 1:03 AM PDT (9/17) 3:28 PM PDT (9/17)
Length of Visible Light 13h 14m
Length of Day
12h 21m
Tomorrow will be 2m 28s shorter.
Waning Crescent, 32% of the Moon is Illuminated
Today
Waning Crescent
Sep 24
New
Oct 1
First Quarter
Oct 8
Full
Oct 15
Last Quarter

Today's Extremes

State Highs State Lows

Community

WunderPhotos

Upload Photos

1,754,224 photos uploaded!

Nearby

Snow Depth

Station Depth Elevation
Leavitt Meadows 0 in 7200 ft
Tahoe City Cross 0 in 6750 ft
Summit Meadow 0 in 9122 ft
Leavitt Lake 0 in 9400 ft
CSS Lab 3 in 6900 ft

Earthquake Activity

City Distance Mag. Time & Date
Cobb, California 30 miles 2.7 1:23 PM PDT
2014-09-16
Minimum magnitude displayed is 2.5.

Coastal Water Temperatures

Place Temperature
Point Reyes, CA 62.1 °F
Arena Cove, CA 60.1 °F
San Francisco, CA 64.9 °F
Richmond, CA 68.0 °F

Nearby Weather Stations